sensor_id;sensor_type;location;lat;lon;timestamp;temperature;humidity
22006;DHT22;11167;46.988;15.470;2023-05-02T00:01:28;16.20;69.10
22006;DHT22;11167;46.988;15.470;2023-05-02T00:03:30;16.20;69.10
22006;DHT22;11167;46.988;15.470;2023-05-02T00:05:33;16.20;69.10
22006;DHT22;11167;46.988;15.470;2023-05-02T00:07:35;16.20;69.20
22006;DHT22;11167;46.988;15.470;2023-05-02T00:09:36;16.20;69.10
22006;DHT22;11167;46.988;15.470;2023-05-02T00:11:38;16.10;69.10
22006;DHT22;11167;46.988;15.470;2023-05-02T00:13:39;16.10;69.10
22006;DHT22;11167;46.988;15.470;2023-05-02T00:15:40;16.10;69.10
22006;DHT22;11167;46.988;15.470;2023-05-02T00:17:41;16.10;69.10
22006;DHT22;11167;46.988;15.470;2023-05-02T00:19:43;16.10;69.20
22006;DHT22;11167;46.988;15.470;2023-05-02T00:21:46;16.10;69.20
22006;DHT22;11167;46.988;15.470;2023-05-02T00:23:50;16.10;69.10
22006;DHT22;11167;46.988;15.470;2023-05-02T00:25:51;16.00;69.10
22006;DHT22;11167;46.988;15.470;2023-05-02T00:27:53;16.00;69.10
22006;DHT22;11167;46.988;15.470;2023-05-02T00:29:55;16.00;69.10
22006;DHT22;11167;46.988;15.470;2023-05-02T00:32:00;16.00;69.10
22006;DHT22;11167;46.988;15.470;2023-05-02T00:34:01;16.00;69.10
22006;DHT22;11167;46.988;15.470;2023-05-02T00:36:02;16.00;69.10
22006;DHT22;11167;46.988;15.470;2023-05-02T00:38:03;16.00;69.10
22006;DHT22;11167;46.988;15.470;2023-05-02T00:40:06;15.90;69.10
22006;DHT22;11167;46.988;15.470;2023-05-02T00:42:08;15.90;69.10
22006;DHT22;11167;46.988;15.470;2023-05-02T00:44:09;15.90;69.10
22006;DHT22;11167;46.988;15.470;2023-05-02T00:46:10;15.90;69.10
22006;DHT22;11167;46.988;15.470;2023-05-02T00:48:12;15.90;69.10
22006;DHT22;11167;46.988;15.470;2023-05-02T00:50:14;15.90;69.10
22006;DHT22;11167;46.988;15.470;2023-05-02T00:52:15;15.80;69.10
22006;DHT22;11167;46.988;15.470;2023-05-02T00:54:16;15.80;70.00
22006;DHT22;11167;46.988;15.470;2023-05-02T00:56:18;15.80;69.10
22006;DHT22;11167;46.988;15.470;2023-05-02T00:58:19;15.80;69.10
22006;DHT22;11167;46.988;15.470;2023-05-02T01:00:22;15.80;69.10
22006;DHT22;11167;46.988;15.470;2023-05-02T01:11:25;15.70;69.10
22006;DHT22;11167;46.988;15.470;2023-05-02T01:13:27;15.70;69.80
22006;DHT22;11167;46.988;15.470;2023-05-02T01:15:30;15.70;69.10
22006;DHT22;11167;46.988;15.470;2023-05-02T01:17:33;15.70;69.10
22006;DHT22;11167;46.988;15.470;2023-05-02T01:19:40;15.60;69.10
22006;DHT22;11167;46.988;15.470;2023-05-02T01:21:43;15.60;69.10
22006;DHT22;11167;46.988;15.470;2023-05-02T01:23:59;15.60;69.10
22006;DHT22;11167;46.988;15.470;2023-05-02T01:26:23;15.60;69.20
22006;DHT22;11167;46.988;15.470;2023-05-02T01:28:35;15.60;69.20
22006;DHT22;11167;46.988;15.470;2023-05-02T01:30:35;15.60;69.20
22006;DHT22;11167;46.988;15.470;2023-05-02T01:32:38;15.60;69.20
22006;DHT22;11167;46.988;15.470;2023-05-02T01:34:42;15.50;69.20
22006;DHT22;11167;46.988;15.470;2023-05-02T01:36:45;15.50;69.20
22006;DHT22;11167;46.988;15.470;2023-05-02T01:38:48;15.50;69.20
22006;DHT22;11167;46.988;15.470;2023-05-02T01:40:51;15.50;69.20
22006;DHT22;11167;46.988;15.470;2023-05-02T01:42:55;15.50;69.20
22006;DHT22;11167;46.988;15.470;2023-05-02T01:44:57;15.50;69.20
22006;DHT22;11167;46.988;15.470;2023-05-02T01:47:00;15.50;69.20
22006;DHT22;11167;46.988;15.470;2023-05-02T01:49:04;15.50;69.20
22006;DHT22;11167;46.988;15.470;2023-05-02T01:51:06;15.40;69.40
22006;DHT22;11167;46.988;15.470;2023-05-02T01:53:09;15.40;69.30
22006;DHT22;11167;46.988;15.470;2023-05-02T01:55:14;15.40;69.20
22006;DHT22;11167;46.988;15.470;2023-05-02T01:57:16;15.40;69.30
22006;DHT22;11167;46.988;15.470;2023-05-02T01:59:19;15.40;69.50
22006;DHT22;11167;46.988;15.470;2023-05-02T02:01:23;15.30;69.30
22006;DHT22;11167;46.988;15.470;2023-05-02T02:03:28;15.30;69.20
22006;DHT22;11167;46.988;15.470;2023-05-02T02:05:33;15.30;69.30
22006;DHT22;11167;46.988;15.470;2023-05-02T02:07:34;15.30;69.40
22006;DHT22;11167;46.988;15.470;2023-05-02T02:09:36;15.30;69.50
22006;DHT22;11167;46.988;15.470;2023-05-02T02:13:49;15.20;69.20
22006;DHT22;11167;46.988;15.470;2023-05-02T02:15:56;15.30;69.40
22006;DHT22;11167;46.988;15.470;2023-05-02T02:20:05;15.20;69.30
22006;DHT22;11167;46.988;15.470;2023-05-02T02:22:09;15.20;69.40
22006;DHT22;11167;46.988;15.470;2023-05-02T02:24:12;15.20;69.20
22006;DHT22;11167;46.988;15.470;2023-05-02T02:26:17;15.20;69.30
22006;DHT22;11167;46.988;15.470;2023-05-02T02:28:19;15.20;69.30
22006;DHT22;11167;46.988;15.470;2023-05-02T02:30:20;15.20;69.30
22006;DHT22;11167;46.988;15.470;2023-05-02T02:32:21;15.20;69.30
22006;DHT22;11167;46.988;15.470;2023-05-02T02:34:23;15.20;69.30
22006;DHT22;11167;46.988;15.470;2023-05-02T02:38:41;15.20;69.30
22006;DHT22;11167;46.988;15.470;2023-05-02T02:40:50;15.10;70.10
22006;DHT22;11167;46.988;15.470;2023-05-02T02:43:09;15.20;69.30
22006;DHT22;11167;46.988;15.470;2023-05-02T02:49:55;15.10;69.30
22006;DHT22;11167;46.988;15.470;2023-05-02T02:52:05;15.10;69.30
22006;DHT22;11167;46.988;15.470;2023-05-02T02:54:23;15.00;69.20
22006;DHT22;11167;46.988;15.470;2023-05-02T02:56:27;15.00;69.30
22006;DHT22;11167;46.988;15.470;2023-05-02T03:00:36;15.00;69.40
22006;DHT22;11167;46.988;15.470;2023-05-02T03:02:38;15.00;69.40
22006;DHT22;11167;46.988;15.470;2023-05-02T03:04:42;15.00;69.40
22006;DHT22;11167;46.988;15.470;2023-05-02T03:06:44;15.00;69.40
22006;DHT22;11167;46.988;15.470;2023-05-02T03:08:46;15.00;69.40
22006;DHT22;11167;46.988;15.470;2023-05-02T03:10:47;15.00;70.00
22006;DHT22;11167;46.988;15.470;2023-05-02T03:12:48;15.00;69.40
22006;DHT22;11167;46.988;15.470;2023-05-02T03:14:49;15.00;69.40
22006;DHT22;11167;46.988;15.470;2023-05-02T03:16:50;15.00;69.40
22006;DHT22;11167;46.988;15.470;2023-05-02T03:18:51;14.90;69.40
22006;DHT22;11167;46.988;15.470;2023-05-02T03:20:53;14.90;69.40
22006;DHT22;11167;46.988;15.470;2023-05-02T03:22:55;14.90;69.30
22006;DHT22;11167;46.988;15.470;2023-05-02T03:24:56;14.90;69.30
22006;DHT22;11167;46.988;15.470;2023-05-02T03:26:57;14.90;69.40
22006;DHT22;11167;46.988;15.470;2023-05-02T03:28:59;14.90;69.40
22006;DHT22;11167;46.988;15.470;2023-05-02T03:31:00;14.90;69.40
22006;DHT22;11167;46.988;15.470;2023-05-02T03:33:01;14.90;69.40
22006;DHT22;11167;46.988;15.470;2023-05-02T03:35:05;14.90;69.40
22006;DHT22;11167;46.988;15.470;2023-05-02T03:37:06;14.90;69.40
22006;DHT22;11167;46.988;15.470;2023-05-02T03:39:07;14.90;69.40
22006;DHT22;11167;46.988;15.470;2023-05-02T03:41:09;14.90;69.40
22006;DHT22;11167;46.988;15.470;2023-05-02T03:43:10;14.90;69.40
22006;DHT22;11167;46.988;15.470;2023-05-02T03:45:11;14.90;69.40
22006;DHT22;11167;46.988;15.470;2023-05-02T03:47:12;14.90;69.40
22006;DHT22;11167;46.988;15.470;2023-05-02T03:49:13;14.80;69.40
22006;DHT22;11167;46.988;15.470;2023-05-02T03:51:15;14.80;70.20
22006;DHT22;11167;46.988;15.470;2023-05-02T03:53:16;14.80;69.40
22006;DHT22;11167;46.988;15.470;2023-05-02T03:55:17;14.80;69.40
22006;DHT22;11167;46.988;15.470;2023-05-02T03:57:18;14.80;69.40
22006;DHT22;11167;46.988;15.470;2023-05-02T03:59:19;14.80;69.40
22006;DHT22;11167;46.988;15.470;2023-05-02T04:01:20;14.80;69.40
22006;DHT22;11167;46.988;15.470;2023-05-02T04:03:21;14.80;69.40
22006;DHT22;11167;46.988;15.470;2023-05-02T04:05:23;14.80;69.40
22006;DHT22;11167;46.988;15.470;2023-05-02T04:07:24;14.80;69.40
22006;DHT22;11167;46.988;15.470;2023-05-02T04:09:25;14.80;69.40
22006;DHT22;11167;46.988;15.470;2023-05-02T04:11:26;14.80;69.40
22006;DHT22;11167;46.988;15.470;2023-05-02T04:13:27;14.80;69.40
22006;DHT22;11167;46.988;15.470;2023-05-02T04:15:32;14.70;69.50
22006;DHT22;11167;46.988;15.470;2023-05-02T04:17:34;14.70;69.40
22006;DHT22;11167;46.988;15.470;2023-05-02T04:19:36;14.70;69.40
22006;DHT22;11167;46.988;15.470;2023-05-02T04:21:37;14.70;69.40
22006;DHT22;11167;46.988;15.470;2023-05-02T04:23:38;14.70;69.40
22006;DHT22;11167;46.988;15.470;2023-05-02T04:25:39;14.70;69.50
22006;DHT22;11167;46.988;15.470;2023-05-02T04:27:40;14.70;69.50
22006;DHT22;11167;46.988;15.470;2023-05-02T04:29:42;14.70;69.50
22006;DHT22;11167;46.988;15.470;2023-05-02T04:31:43;14.70;69.50
22006;DHT22;11167;46.988;15.470;2023-05-02T04:33:44;14.70;69.60
22006;DHT22;11167;46.988;15.470;2023-05-02T04:35:48;14.70;69.50
22006;DHT22;11167;46.988;15.470;2023-05-02T04:37:49;14.70;69.60
22006;DHT22;11167;46.988;15.470;2023-05-02T04:39:50;14.70;69.60
22006;DHT22;11167;46.988;15.470;2023-05-02T04:41:51;14.70;69.60
22006;DHT22;11167;46.988;15.470;2023-05-02T04:43:52;14.60;69.60
22006;DHT22;11167;46.988;15.470;2023-05-02T04:45:54;14.70;69.60
22006;DHT22;11167;46.988;15.470;2023-05-02T04:47:55;14.60;69.70
22006;DHT22;11167;46.988;15.470;2023-05-02T04:49:57;14.60;69.60
22006;DHT22;11167;46.988;15.470;2023-05-02T04:51:58;14.60;69.70
22006;DHT22;11167;46.988;15.470;2023-05-02T04:53:59;14.60;69.60
22006;DHT22;11167;46.988;15.470;2023-05-02T04:56:00;14.60;69.70
22006;DHT22;11167;46.988;15.470;2023-05-02T04:58:01;14.60;69.60
22006;DHT22;11167;46.988;15.470;2023-05-02T05:00:02;14.60;69.60
22006;DHT22;11167;46.988;15.470;2023-05-02T05:02:04;14.60;69.70
22006;DHT22;11167;46.988;15.470;2023-05-02T05:04:05;14.60;69.60
22006;DHT22;11167;46.988;15.470;2023-05-02T05:06:07;14.60;69.60
22006;DHT22;11167;46.988;15.470;2023-05-02T05:08:08;14.60;69.70
22006;DHT22;11167;46.988;15.470;2023-05-02T05:10:09;14.60;69.70
22006;DHT22;11167;46.988;15.470;2023-05-02T05:12:11;14.60;69.70
22006;DHT22;11167;46.988;15.470;2023-05-02T05:14:12;14.60;69.70
22006;DHT22;11167;46.988;15.470;2023-05-02T05:16:13;14.60;69.70
22006;DHT22;11167;46.988;15.470;2023-05-02T05:18:14;14.60;69.70
22006;DHT22;11167;46.988;15.470;2023-05-02T05:20:15;14.60;69.70
22006;DHT22;11167;46.988;15.470;2023-05-02T05:22:16;14.60;70.30
22006;DHT22;11167;46.988;15.470;2023-05-02T05:24:17;14.60;69.70
22006;DHT22;11167;46.988;15.470;2023-05-02T05:26:18;14.50;69.70
22006;DHT22;11167;46.988;15.470;2023-05-02T05:28:20;14.50;69.70
22006;DHT22;11167;46.988;15.470;2023-05-02T05:30:21;14.50;69.70
22006;DHT22;11167;46.988;15.470;2023-05-02T05:32:22;14.50;70.60
22006;DHT22;11167;46.988;15.470;2023-05-02T05:34:23;14.50;69.70
22006;DHT22;11167;46.988;15.470;2023-05-02T05:36:26;14.50;69.70
22006;DHT22;11167;46.988;15.470;2023-05-02T05:38:27;14.50;69.70
22006;DHT22;11167;46.988;15.470;2023-05-02T05:40:29;14.50;69.70
22006;DHT22;11167;46.988;15.470;2023-05-02T05:42:30;14.50;69.70
22006;DHT22;11167;46.988;15.470;2023-05-02T05:44:31;14.50;69.70
22006;DHT22;11167;46.988;15.470;2023-05-02T05:46:33;14.50;69.80
22006;DHT22;11167;46.988;15.470;2023-05-02T05:48:34;14.50;69.70
22006;DHT22;11167;46.988;15.470;2023-05-02T05:50:35;14.50;69.70
22006;DHT22;11167;46.988;15.470;2023-05-02T05:52:36;14.50;69.80
22006;DHT22;11167;46.988;15.470;2023-05-02T05:54:37;14.50;69.70
22006;DHT22;11167;46.988;15.470;2023-05-02T05:56:38;14.50;69.70
22006;DHT22;11167;46.988;15.470;2023-05-02T05:58:39;14.50;70.60
22006;DHT22;11167;46.988;15.470;2023-05-02T06:00:40;14.50;69.70
22006;DHT22;11167;46.988;15.470;2023-05-02T06:02:42;14.50;69.80
22006;DHT22;11167;46.988;15.470;2023-05-02T06:04:43;14.50;69.80
22006;DHT22;11167;46.988;15.470;2023-05-02T06:06:45;14.50;70.70
22006;DHT22;11167;46.988;15.470;2023-05-02T06:08:46;14.50;70.60
22006;DHT22;11167;46.988;15.470;2023-05-02T06:10:50;14.50;69.90
22006;DHT22;11167;46.988;15.470;2023-05-02T06:12:51;14.50;69.80
22006;DHT22;11167;46.988;15.470;2023-05-02T06:14:52;14.50;69.90
22006;DHT22;11167;46.988;15.470;2023-05-02T06:16:53;14.50;69.80
22006;DHT22;11167;46.988;15.470;2023-05-02T06:18:54;14.50;69.80
22006;DHT22;11167;46.988;15.470;2023-05-02T06:20:55;14.50;69.90
22006;DHT22;11167;46.988;15.470;2023-05-02T06:22:57;14.50;69.90
22006;DHT22;11167;46.988;15.470;2023-05-02T06:24:58;14.50;69.90
22006;DHT22;11167;46.988;15.470;2023-05-02T06:27:00;14.50;69.80
22006;DHT22;11167;46.988;15.470;2023-05-02T06:29:02;14.50;69.90
22006;DHT22;11167;46.988;15.470;2023-05-02T06:31:04;14.50;69.90
22006;DHT22;11167;46.988;15.470;2023-05-02T06:33:05;14.50;69.90
22006;DHT22;11167;46.988;15.470;2023-05-02T06:35:07;14.50;69.90
22006;DHT22;11167;46.988;15.470;2023-05-02T06:37:08;14.50;69.90
22006;DHT22;11167;46.988;15.470;2023-05-02T06:39:09;14.50;69.90
22006;DHT22;11167;46.988;15.470;2023-05-02T06:41:14;14.50;69.80
22006;DHT22;11167;46.988;15.470;2023-05-02T06:43:16;14.50;69.90
22006;DHT22;11167;46.988;15.470;2023-05-02T06:45:17;14.50;69.90
22006;DHT22;11167;46.988;15.470;2023-05-02T06:47:18;14.50;69.80
22006;DHT22;11167;46.988;15.470;2023-05-02T06:49:20;14.50;70.00
22006;DHT22;11167;46.988;15.470;2023-05-02T06:51:21;14.50;69.90
22006;DHT22;11167;46.988;15.470;2023-05-02T06:53:22;14.50;69.90
22006;DHT22;11167;46.988;15.470;2023-05-02T06:55:23;14.50;69.90
22006;DHT22;11167;46.988;15.470;2023-05-02T06:57:25;14.50;69.90
22006;DHT22;11167;46.988;15.470;2023-05-02T06:59:26;14.50;69.90
22006;DHT22;11167;46.988;15.470;2023-05-02T07:01:27;14.50;69.90
22006;DHT22;11167;46.988;15.470;2023-05-02T07:03:28;14.50;69.70
22006;DHT22;11167;46.988;15.470;2023-05-02T07:05:30;14.50;69.90
22006;DHT22;11167;46.988;15.470;2023-05-02T07:07:31;14.50;69.90
22006;DHT22;11167;46.988;15.470;2023-05-02T07:09:32;14.50;69.90
22006;DHT22;11167;46.988;15.470;2023-05-02T07:11:33;14.50;70.00
22006;DHT22;11167;46.988;15.470;2023-05-02T07:13:35;14.50;70.00
22006;DHT22;11167;46.988;15.470;2023-05-02T07:15:37;14.50;70.00
22006;DHT22;11167;46.988;15.470;2023-05-02T07:17:38;14.50;69.70
22006;DHT22;11167;46.988;15.470;2023-05-02T07:19:40;14.50;69.90
22006;DHT22;11167;46.988;15.470;2023-05-02T07:21:41;14.50;69.90
22006;DHT22;11167;46.988;15.470;2023-05-02T07:23:42;14.50;69.90
22006;DHT22;11167;46.988;15.470;2023-05-02T07:25:43;14.50;70.00
22006;DHT22;11167;46.988;15.470;2023-05-02T07:27:45;14.50;70.00
22006;DHT22;11167;46.988;15.470;2023-05-02T07:29:46;14.50;70.00
22006;DHT22;11167;46.988;15.470;2023-05-02T07:31:47;14.60;70.00
22006;DHT22;11167;46.988;15.470;2023-05-02T07:33:48;14.60;70.10
22006;DHT22;11167;46.988;15.470;2023-05-02T07:35:49;14.60;70.10
22006;DHT22;11167;46.988;15.470;2023-05-02T07:37:51;14.60;70.10
22006;DHT22;11167;46.988;15.470;2023-05-02T07:39:52;14.60;70.10
22006;DHT22;11167;46.988;15.470;2023-05-02T07:41:53;14.60;70.20
22006;DHT22;11167;46.988;15.470;2023-05-02T07:43:54;14.60;70.20
22006;DHT22;11167;46.988;15.470;2023-05-02T07:45:57;14.60;70.20
22006;DHT22;11167;46.988;15.470;2023-05-02T07:47:59;14.60;70.20
22006;DHT22;11167;46.988;15.470;2023-05-02T07:50:01;14.60;70.20
22006;DHT22;11167;46.988;15.470;2023-05-02T07:52:04;14.60;70.20
22006;DHT22;11167;46.988;15.470;2023-05-02T07:54:24;14.70;70.30
22006;DHT22;11167;46.988;15.470;2023-05-02T07:56:28;14.70;70.30
22006;DHT22;11167;46.988;15.470;2023-05-02T07:58:29;14.60;70.30
22006;DHT22;11167;46.988;15.470;2023-05-02T08:00:30;14.60;70.40
22006;DHT22;11167;46.988;15.470;2023-05-02T08:02:31;14.60;70.40
22006;DHT22;11167;46.988;15.470;2023-05-02T08:04:33;14.70;70.50
22006;DHT22;11167;46.988;15.470;2023-05-02T08:06:34;14.70;70.70
22006;DHT22;11167;46.988;15.470;2023-05-02T08:08:36;14.70;70.70
22006;DHT22;11167;46.988;15.470;2023-05-02T08:10:37;14.70;70.70
22006;DHT22;11167;46.988;15.470;2023-05-02T08:12:41;14.70;70.70
22006;DHT22;11167;46.988;15.470;2023-05-02T08:14:43;14.70;70.70
22006;DHT22;11167;46.988;15.470;2023-05-02T08:16:44;14.80;70.80
22006;DHT22;11167;46.988;15.470;2023-05-02T08:18:45;14.80;70.80
22006;DHT22;11167;46.988;15.470;2023-05-02T08:20:46;14.80;70.70
22006;DHT22;11167;46.988;15.470;2023-05-02T08:22:48;14.80;70.80
22006;DHT22;11167;46.988;15.470;2023-05-02T08:24:50;14.80;70.80
22006;DHT22;11167;46.988;15.470;2023-05-02T08:26:51;14.80;70.70
22006;DHT22;11167;46.988;15.470;2023-05-02T08:28:53;14.80;70.90
22006;DHT22;11167;46.988;15.470;2023-05-02T08:30:55;14.80;70.90
22006;DHT22;11167;46.988;15.470;2023-05-02T08:32:56;14.80;70.90
22006;DHT22;11167;46.988;15.470;2023-05-02T08:34:57;14.80;70.90
22006;DHT22;11167;46.988;15.470;2023-05-02T08:36:59;14.90;71.80
22006;DHT22;11167;46.988;15.470;2023-05-02T08:39:00;14.90;70.90
22006;DHT22;11167;46.988;15.470;2023-05-02T08:41:01;14.90;70.90
22006;DHT22;11167;46.988;15.470;2023-05-02T08:43:03;14.90;71.00
22006;DHT22;11167;46.988;15.470;2023-05-02T08:45:07;14.90;71.90
22006;DHT22;11167;46.988;15.470;2023-05-02T08:47:10;14.90;71.10
22006;DHT22;11167;46.988;15.470;2023-05-02T08:49:14;14.90;71.10
22006;DHT22;11167;46.988;15.470;2023-05-02T08:51:16;14.90;71.10
22006;DHT22;11167;46.988;15.470;2023-05-02T08:53:18;14.90;71.10
22006;DHT22;11167;46.988;15.470;2023-05-02T08:55:19;15.00;71.30
22006;DHT22;11167;46.988;15.470;2023-05-02T08:57:22;15.00;71.30
22006;DHT22;11167;46.988;15.470;2023-05-02T08:59:24;15.00;71.30
22006;DHT22;11167;46.988;15.470;2023-05-02T09:01:27;15.00;72.10
22006;DHT22;11167;46.988;15.470;2023-05-02T09:03:34;15.00;71.30
22006;DHT22;11167;46.988;15.470;2023-05-02T09:05:39;15.00;71.30
22006;DHT22;11167;46.988;15.470;2023-05-02T09:07:45;15.00;71.30
22006;DHT22;11167;46.988;15.470;2023-05-02T09:09:47;15.00;71.30
22006;DHT22;11167;46.988;15.470;2023-05-02T09:11:49;15.10;71.40
22006;DHT22;11167;46.988;15.470;2023-05-02T09:13:51;15.10;71.30
22006;DHT22;11167;46.988;15.470;2023-05-02T09:18:05;15.10;71.50
22006;DHT22;11167;46.988;15.470;2023-05-02T09:20:07;15.10;71.50
22006;DHT22;11167;46.988;15.470;2023-05-02T09:22:10;15.10;71.50
22006;DHT22;11167;46.988;15.470;2023-05-02T09:24:19;15.10;71.50
22006;DHT22;11167;46.988;15.470;2023-05-02T09:26:23;15.10;71.60
22006;DHT22;11167;46.988;15.470;2023-05-02T09:28:39;15.20;71.60
22006;DHT22;11167;46.988;15.470;2023-05-02T09:30:40;15.20;71.60
22006;DHT22;11167;46.988;15.470;2023-05-02T09:32:45;15.20;72.50
22006;DHT22;11167;46.988;15.470;2023-05-02T09:35:05;15.20;71.70
22006;DHT22;11167;46.988;15.470;2023-05-02T09:37:06;15.20;71.80
22006;DHT22;11167;46.988;15.470;2023-05-02T09:39:09;15.20;71.70
22006;DHT22;11167;46.988;15.470;2023-05-02T09:41:11;15.20;71.70
22006;DHT22;11167;46.988;15.470;2023-05-02T09:43:13;15.20;71.70
22006;DHT22;11167;46.988;15.470;2023-05-02T09:45:21;15.20;71.70
22006;DHT22;11167;46.988;15.470;2023-05-02T09:47:25;15.20;71.70
22006;DHT22;11167;46.988;15.470;2023-05-02T09:49:41;15.30;71.70
22006;DHT22;11167;46.988;15.470;2023-05-02T09:51:46;15.30;71.70
22006;DHT22;11167;46.988;15.470;2023-05-02T09:53:48;15.30;71.80
22006;DHT22;11167;46.988;15.470;2023-05-02T09:56:12;15.30;71.90
22006;DHT22;11167;46.988;15.470;2023-05-02T09:57:54;15.40;71.90
22006;DHT22;11167;46.988;15.470;2023-05-02T09:59:57;15.40;71.90
22006;DHT22;11167;46.988;15.470;2023-05-02T10:02:00;15.40;71.90
22006;DHT22;11167;46.988;15.470;2023-05-02T10:04:03;15.40;71.90
22006;DHT22;11167;46.988;15.470;2023-05-02T10:06:07;15.40;72.00
22006;DHT22;11167;46.988;15.470;2023-05-02T10:08:09;15.40;72.00
22006;DHT22;11167;46.988;15.470;2023-05-02T10:10:13;15.40;71.90
22006;DHT22;11167;46.988;15.470;2023-05-02T10:12:17;15.50;72.00
22006;DHT22;11167;46.988;15.470;2023-05-02T10:14:22;15.50;72.00
22006;DHT22;11167;46.988;15.470;2023-05-02T10:16:26;15.50;72.00
22006;DHT22;11167;46.988;15.470;2023-05-02T10:19:01;15.50;72.80
22006;DHT22;11167;46.988;15.470;2023-05-02T10:21:11;15.60;72.10
22006;DHT22;11167;46.988;15.470;2023-05-02T10:23:15;15.50;72.10
22006;DHT22;11167;46.988;15.470;2023-05-02T10:25:17;15.60;72.30
22006;DHT22;11167;46.988;15.470;2023-05-02T10:27:19;15.60;72.10
22006;DHT22;11167;46.988;15.470;2023-05-02T10:29:20;15.60;72.10
22006;DHT22;11167;46.988;15.470;2023-05-02T10:31:22;15.60;72.10
22006;DHT22;11167;46.988;15.470;2023-05-02T10:33:24;15.70;72.20
22006;DHT22;11167;46.988;15.470;2023-05-02T10:35:26;15.70;72.20
22006;DHT22;11167;46.988;15.470;2023-05-02T10:37:28;15.70;72.10
22006;DHT22;11167;46.988;15.470;2023-05-02T10:39:33;15.70;72.20
22006;DHT22;11167;46.988;15.470;2023-05-02T10:41:34;15.70;72.20
22006;DHT22;11167;46.988;15.470;2023-05-02T10:43:37;15.70;72.20
22006;DHT22;11167;46.988;15.470;2023-05-02T10:45:38;15.80;72.30
22006;DHT22;11167;46.988;15.470;2023-05-02T10:47:40;15.80;72.30
22006;DHT22;11167;46.988;15.470;2023-05-02T10:49:59;15.80;73.10
22006;DHT22;11167;46.988;15.470;2023-05-02T10:52:23;15.80;72.30
22006;DHT22;11167;46.988;15.470;2023-05-02T10:54:24;15.90;72.30
22006;DHT22;11167;46.988;15.470;2023-05-02T10:56:25;15.90;72.30
22006;DHT22;11167;46.988;15.470;2023-05-02T10:58:26;15.90;72.30
22006;DHT22;11167;46.988;15.470;2023-05-02T11:00:29;15.90;72.30
22006;DHT22;11167;46.988;15.470;2023-05-02T11:11:40;16.00;72.50
22006;DHT22;11167;46.988;15.470;2023-05-02T11:13:48;16.00;72.40
22006;DHT22;11167;46.988;15.470;2023-05-02T11:15:53;16.00;72.40
22006;DHT22;11167;46.988;15.470;2023-05-02T11:18:06;16.00;72.40
22006;DHT22;11167;46.988;15.470;2023-05-02T11:24:41;16.10;72.50
22006;DHT22;11167;46.988;15.470;2023-05-02T11:26:42;16.10;72.50
22006;DHT22;11167;46.988;15.470;2023-05-02T11:28:44;16.10;72.40
22006;DHT22;11167;46.988;15.470;2023-05-02T11:30:47;16.20;72.50
22006;DHT22;11167;46.988;15.470;2023-05-02T11:34:58;16.20;72.50
22006;DHT22;11167;46.988;15.470;2023-05-02T11:36:59;16.20;72.50
22006;DHT22;11167;46.988;15.470;2023-05-02T11:39:01;16.20;72.50
22006;DHT22;11167;46.988;15.470;2023-05-02T11:41:03;16.20;72.50
22006;DHT22;11167;46.988;15.470;2023-05-02T11:43:13;16.30;72.50
22006;DHT22;11167;46.988;15.470;2023-05-02T11:45:15;16.30;72.60
22006;DHT22;11167;46.988;15.470;2023-05-02T11:47:16;16.30;72.50
22006;DHT22;11167;46.988;15.470;2023-05-02T11:49:17;16.30;72.50
22006;DHT22;11167;46.988;15.470;2023-05-02T11:51:23;16.30;72.50
22006;DHT22;11167;46.988;15.470;2023-05-02T11:53:26;16.30;72.50
22006;DHT22;11167;46.988;15.470;2023-05-02T11:55:31;16.30;72.50
22006;DHT22;11167;46.988;15.470;2023-05-02T11:57:32;16.40;72.50
22006;DHT22;11167;46.988;15.470;2023-05-02T11:59:52;16.40;72.60
22006;DHT22;11167;46.988;15.470;2023-05-02T12:01:54;16.40;72.50
22006;DHT22;11167;46.988;15.470;2023-05-02T12:04:06;16.40;72.50
22006;DHT22;11167;46.988;15.470;2023-05-02T12:08:24;16.40;72.50
22006;DHT22;11167;46.988;15.470;2023-05-02T12:10:36;16.50;72.50
22006;DHT22;11167;46.988;15.470;2023-05-02T12:12:38;16.50;72.60
22006;DHT22;11167;46.988;15.470;2023-05-02T12:14:40;16.50;72.50
22006;DHT22;11167;46.988;15.470;2023-05-02T12:16:41;16.50;72.50
22006;DHT22;11167;46.988;15.470;2023-05-02T12:18:44;16.50;72.50
22006;DHT22;11167;46.988;15.470;2023-05-02T12:20:46;16.50;72.50
22006;DHT22;11167;46.988;15.470;2023-05-02T12:22:48;16.50;72.50
22006;DHT22;11167;46.988;15.470;2023-05-02T12:24:49;16.50;72.50
22006;DHT22;11167;46.988;15.470;2023-05-02T12:27:10;16.60;72.50
22006;DHT22;11167;46.988;15.470;2023-05-02T12:29:11;16.60;72.50
22006;DHT22;11167;46.988;15.470;2023-05-02T12:31:12;16.60;72.60
22006;DHT22;11167;46.988;15.470;2023-05-02T12:33:13;16.60;72.60
22006;DHT22;11167;46.988;15.470;2023-05-02T12:35:22;16.60;72.60
22006;DHT22;11167;46.988;15.470;2023-05-02T12:37:24;16.60;72.60
22006;DHT22;11167;46.988;15.470;2023-05-02T12:39:42;16.60;72.60
22006;DHT22;11167;46.988;15.470;2023-05-02T12:41:43;16.60;72.60
22006;DHT22;11167;46.988;15.470;2023-05-02T12:43:47;16.60;72.60
22006;DHT22;11167;46.988;15.470;2023-05-02T12:45:49;16.60;72.60
22006;DHT22;11167;46.988;15.470;2023-05-02T12:47:52;16.60;72.60
22006;DHT22;11167;46.988;15.470;2023-05-02T12:49:55;16.70;72.60
22006;DHT22;11167;46.988;15.470;2023-05-02T12:51:59;16.70;72.60
22006;DHT22;11167;46.988;15.470;2023-05-02T12:54:01;16.70;72.60
22006;DHT22;11167;46.988;15.470;2023-05-02T12:56:03;16.70;72.60
22006;DHT22;11167;46.988;15.470;2023-05-02T12:58:08;16.70;72.60
22006;DHT22;11167;46.988;15.470;2023-05-02T13:00:10;16.70;72.60
22006;DHT22;11167;46.988;15.470;2023-05-02T13:02:11;16.70;72.60
22006;DHT22;11167;46.988;15.470;2023-05-02T13:04:12;16.70;72.60
22006;DHT22;11167;46.988;15.470;2023-05-02T13:06:13;16.70;73.00
22006;DHT22;11167;46.988;15.470;2023-05-02T13:08:15;16.70;72.50
22006;DHT22;11167;46.988;15.470;2023-05-02T13:10:17;16.70;72.50
22006;DHT22;11167;46.988;15.470;2023-05-02T13:12:18;16.80;72.60
22006;DHT22;11167;46.988;15.470;2023-05-02T13:14:20;16.80;72.60
22006;DHT22;11167;46.988;15.470;2023-05-02T13:16:21;16.80;72.50
22006;DHT22;11167;46.988;15.470;2023-05-02T13:18:22;16.80;72.50
22006;DHT22;11167;46.988;15.470;2023-05-02T13:20:23;16.80;72.60
22006;DHT22;11167;46.988;15.470;2023-05-02T13:22:24;16.80;72.60
22006;DHT22;11167;46.988;15.470;2023-05-02T13:24:25;16.80;72.50
22006;DHT22;11167;46.988;15.470;2023-05-02T13:26:27;16.80;72.60